Silverton, Texas
Current Conditions -  °F | °C
As of 6:15 AM on Sunday 23 Nov 2014 (Local Time) from KPVW Reporting Station
Clear Clear  
Wind Chill: 55°   Ceiling: Unl
Heat Index: 55°   Visibility: 10mi
Dew Point: 24°   Wind: 23mph
Humidity: 30%   Direction: 290°WNW
Pressure: 29.52"   Gusts: 30mph
Location:  34.47°N, 101.3°W
Report Text: KPVW 231215Z AUTO 29020G26KT 10SM CLR 13/M04 A2952 RMK AO2 T01271045
Loading
Personal Weather Stations






























Interactive Weather Map New forecast layout! Learn more

10-Day Weather Forecast

Advertisements
Track Severe Weather on mobile